Time;durP1;ratioP1;P1;durP2;ratioP2;P2;SDS_P1;SDS_P2;PMS_P1;PMS_P2;Temp;Humidity;BMP_temperature;BMP_pressure;BME280_temperature;BME280_humidity;BME280_pressure;Samples;Min_cycle;Max_cycle;Signal;HPM_P1;HPM_P2
2021/05/07 00:00:58;;;;;;;7.37;3.60;;;;;;;5.77;68.96;95291.52;1753970;82;21141;-60
2021/05/07 00:03:27;;;;;;;5.17;2.03;;;;;;;5.73;69.82;95278.45;1754237;82;21121;-60
2021/05/07 00:05:56;;;;;;;7.23;3.30;;;;;;;5.72;69.59;95284.54;1754142;82;21551;-60
2021/05/07 00:08:30;;;;;;;6.87;2.47;;;;;;;5.68;69.52;95285.00;1753985;82;21579;-60
2021/05/07 00:10:59;;;;;;;8.28;3.22;;;;;;;5.64;70.60;95260.61;1754262;82;21532;-60
2021/05/07 00:13:28;;;;;;;8.07;3.50;;;;;;;5.72;69.98;95266.22;1754275;82;21539;-60
2021/05/07 00:15:56;;;;;;;10.97;4.70;;;;;;;5.77;70.11;95263.13;1753943;82;21118;-60
2021/05/07 00:18:25;;;;;;;7.80;4.00;;;;;;;5.82;69.69;95257.02;1754080;82;21141;-60
2021/05/07 00:20:54;;;;;;;7.33;2.90;;;;;;;5.88;69.67;95244.77;1753976;82;21185;-60
2021/05/07 00:23:22;;;;;;;7.53;3.77;;;;;;;5.90;69.75;95253.49;1726563;82;21586;-60
2021/05/07 00:25:51;;;;;;;6.40;3.40;;;;;;;5.90;70.00;95249.12;1754029;82;21118;-60
2021/05/07 00:28:20;;;;;;;7.23;3.57;;;;;;;6.00;69.76;95246.04;1753892;82;21138;-60
2021/05/07 00:30:49;;;;;;;6.47;3.30;;;;;;;6.04;69.30;95253.84;1754121;82;21583;-60
2021/05/07 00:33:17;;;;;;;4.77;2.40;;;;;;;6.06;69.26;95252.53;1756070;82;21161;-60
2021/05/07 00:35:45;;;;;;;7.00;3.10;;;;;;;6.06;69.88;95250.78;1756233;82;21161;-60
2021/05/07 00:38:12;;;;;;;7.23;3.67;;;;;;;6.03;70.05;95241.64;1756790;82;21173;-60
2021/05/07 00:40:40;;;;;;;7.50;3.97;;;;;;;6.12;69.59;95238.07;1756726;82;21595;-60
2021/05/07 00:43:08;;;;;;;9.47;3.77;;;;;;;6.20;69.38;95235.39;1756561;82;21160;-60
2021/05/07 00:45:36;;;;;;;5.63;3.10;;;;;;;6.31;69.67;95219.17;1756581;82;21121;-60
2021/05/07 00:48:11;;;;;;;5.43;2.93;;;;;;;6.21;69.32;95220.13;1772348;80;21567;-60
2021/05/07 00:50:43;;;;;;;3.70;2.00;;;;;;;6.12;69.96;95213.19;1687236;84;21142;-60
2021/05/07 00:53:11;;;;;;;8.77;3.60;;;;;;;6.08;70.23;95222.41;1687880;84;21170;-60
2021/05/07 00:55:39;;;;;;;3.30;1.97;;;;;;;6.05;70.33;95219.38;1706171;84;21148;-60
2021/05/07 00:58:09;;;;;;;6.67;2.70;;;;;;;6.02;70.22;95217.66;1702543;84;21697;-60
2021/05/07 01:00:38;;;;;;;4.43;2.63;;;;;;;5.98;71.05;95217.23;1726714;83;21178;-61
2021/05/07 01:03:06;;;;;;;5.10;2.83;;;;;;;5.93;71.00;95205.02;1706062;84;21575;-60
2021/05/07 01:05:34;;;;;;;7.17;3.47;;;;;;;5.95;71.05;95218.56;1735038;83;21158;-60
2021/05/07 01:08:01;;;;;;;5.53;2.97;;;;;;;5.99;71.03;95203.24;1706079;84;21606;-60
2021/05/07 01:10:30;;;;;;;4.97;2.43;;;;;;;6.00;70.77;95212.86;1702523;84;21598;-60
2021/05/07 01:12:58;;;;;;;6.13;2.97;;;;;;;6.02;70.79;95204.97;1726633;83;21169;-60
2021/05/07 01:15:28;;;;;;;1.90;1.23;;;;;;;6.03;70.41;95197.11;1704621;84;21145;-60
2021/05/07 01:17:58;;;;;;;3.53;1.57;;;;;;;6.01;70.42;95209.34;1735447;83;21150;-60
2021/05/07 01:20:30;;;;;;;5.23;2.80;;;;;;;5.98;71.66;95215.06;1706084;84;21157;-60
2021/05/07 01:23:05;;;;;;;6.93;3.20;;;;;;;5.95;71.64;95209.85;1702647;84;21148;-60
2021/05/07 01:25:43;;;;;;;10.90;4.30;;;;;;;5.94;71.53;95208.95;1726232;83;21174;-59
2021/05/07 01:28:14;;;;;;;11.60;4.10;;;;;;;5.96;71.85;95214.19;1706189;84;21142;-59
2021/05/07 01:30:48;;;;;;;10.40;3.83;;;;;;;5.99;72.18;95220.27;1735126;82;21129;-60
2021/05/07 01:33:21;;;;;;;19.20;7.37;;;;;;;6.01;71.52;95218.52;1720159;83;21117;-60
2021/05/07 01:35:50;;;;;;;18.10;7.47;;;;;;;6.06;71.04;95220.66;1737509;82;21164;-60
2021/05/07 01:38:20;;;;;;;15.27;5.70;;;;;;;6.16;70.96;95210.12;1726427;83;21607;-59
2021/05/07 01:40:52;;;;;;;15.13;5.87;;;;;;;6.24;71.39;95210.48;1756269;82;21280;-60
2021/05/07 01:43:23;;;;;;;14.58;5.95;;;;;;;6.28;70.38;95203.48;1737295;82;21280;-60
2021/05/07 01:45:52;;;;;;;9.73;4.87;;;;;;;6.37;69.84;95203.83;1725661;83;21137;-60
2021/05/07 01:48:20;;;;;;;12.90;5.13;;;;;;;6.44;70.48;95193.72;1755847;82;21150;-60
2021/05/07 01:50:49;;;;;;;8.33;4.00;;;;;;;6.49;70.61;95186.69;1725686;83;21308;-61
2021/05/07 01:53:18;;;;;;;11.00;4.17;;;;;;;6.56;71.15;95188.38;1755821;82;21287;-60
2021/05/07 01:55:48;;;;;;;10.17;4.57;;;;;;;6.63;71.86;95186.57;1755668;82;21158;-60
2021/05/07 01:58:19;;;;;;;9.70;4.20;;;;;;;6.69;71.91;95182.56;1754541;82;21594;-60
2021/05/07 02:00:49;;;;;;;10.00;3.33;;;;;;;6.66;72.07;95180.84;1755563;82;21157;-60
2021/05/07 02:03:17;;;;;;;7.13;3.63;;;;;;;6.72;71.59;95189.94;1755769;82;21154;-60
2021/05/07 02:05:46;;;;;;;5.40;3.53;;;;;;;6.64;72.65;95200.09;1754722;82;21588;-61
2021/05/07 02:08:14;;;;;;;5.77;3.03;;;;;;;6.65;72.57;95188.70;1755636;82;21115;-60
2021/05/07 02:10:43;;;;;;;6.73;2.57;;;;;;;6.71;72.81;95203.09;1755693;82;21207;-60
2021/05/07 02:13:12;;;;;;;3.73;2.50;;;;;;;6.71;72.93;95189.53;1755713;82;21142;-60
2021/05/07 02:15:42;;;;;;;3.80;2.13;;;;;;;6.71;73.29;95176.42;1755608;82;21143;-60
2021/05/07 02:18:11;;;;;;;3.13;1.60;;;;;;;6.70;74.02;95176.42;1755710;82;21550;-60
2021/05/07 02:20:40;;;;;;;2.40;1.77;;;;;;;6.63;73.88;95169.53;1755745;82;21171;-60
2021/05/07 02:23:08;;;;;;;3.90;1.73;;;;;;;6.50;75.29;95170.96;1755710;82;21612;-60
2021/05/07 02:25:36;;;;;;;2.30;1.60;;;;;;;6.51;74.86;95173.13;1755790;82;21119;-60
2021/05/07 02:28:06;;;;;;;4.33;1.80;;;;;;;6.53;74.60;95159.99;1755605;82;21603;-60
2021/05/07 02:30:34;;;;;;;3.60;2.00;;;;;;;6.57;74.67;95170.44;1756080;82;21349;-60
2021/05/07 02:33:04;;;;;;;2.97;1.97;;;;;;;6.55;75.48;95170.92;1755708;82;21580;-60
2021/05/07 02:35:33;;;;;;;3.80;1.80;;;;;;;6.48;76.41;95164.86;1755759;82;21154;-60
2021/05/07 02:38:01;;;;;;;2.70;2.20;;;;;;;6.49;75.76;95158.72;1755601;82;21588;-60
2021/05/07 02:40:29;;;;;;;3.47;2.50;;;;;;;6.41;76.74;95157.07;1755968;82;21296;-60
2021/05/07 02:42:57;;;;;;;3.40;2.47;;;;;;;6.42;76.73;95166.66;1755631;82;21190;-60
2021/05/07 02:45:27;;;;;;;3.90;2.00;;;;;;;6.37;76.20;95161.91;1755570;82;21592;-60
2021/05/07 02:47:55;;;;;;;2.90;1.90;;;;;;;6.35;75.89;95158.42;1721916;82;21123;-60
2021/05/07 02:50:23;;;;;;;4.37;1.53;;;;;;;6.29;75.49;95150.18;1693617;84;21178;-60
2021/05/07 02:52:51;;;;;;;4.83;2.53;;;;;;;6.24;75.85;95155.91;1695484;84;21126;-60
2021/05/07 02:55:19;;;;;;;4.50;2.50;;;;;;;6.21;75.32;95155.94;1689903;85;21594;-60
2021/05/07 02:57:47;;;;;;;2.77;2.10;;;;;;;6.19;75.57;95155.94;1721005;83;21565;-60
2021/05/07 03:00:17;;;;;;;3.73;2.13;;;;;;;6.19;76.17;95153.32;1695256;85;21150;-60
2021/05/07 03:02:44;;;;;;;7.50;2.80;;;;;;;6.18;76.65;95166.45;1724074;83;21348;-60
2021/05/07 03:05:14;;;;;;;5.67;2.43;;;;;;;6.12;77.43;95168.66;1695346;85;21177;-60
2021/05/07 03:07:41;;;;;;;2.33;1.83;;;;;;;6.04;76.75;95164.80;1689744;85;21156;-60
2021/05/07 03:10:10;;;;;;;6.07;2.03;;;;;;;6.07;76.78;95166.52;1720717;83;21174;-60
2021/05/07 03:12:37;;;;;;;5.93;2.10;;;;;;;6.05;77.47;95170.92;1695733;83;21118;-60
2021/05/07 03:15:07;;;;;;;3.80;1.70;;;;;;;5.98;77.81;95178.39;1724411;83;21280;-60
2021/05/07 03:17:36;;;;;;;3.10;2.10;;;;;;;5.99;78.18;95175.75;1695398;85;21134;-60
2021/05/07 03:20:06;;;;;;;3.73;2.10;;;;;;;5.96;78.06;95173.61;1689830;85;21136;-60
2021/05/07 03:22:34;;;;;;;7.73;2.50;;;;;;;5.97;78.22;95173.61;1710642;84;21155;-60
2021/05/07 03:25:03;;;;;;;10.10;3.27;;;;;;;5.94;78.21;95165.75;1695154;85;21319;-60
2021/05/07 03:27:30;;;;;;;18.10;5.90;;;;;;;6.04;77.98;95166.10;1724284;83;21707;-60
2021/05/07 03:29:58;;;;;;;23.30;8.83;;;;;;;6.03;78.91;95160.90;1695268;84;21750;-60
2021/05/07 03:32:26;;;;;;;12.87;4.93;;;;;;;6.13;78.49;95170.86;1688750;85;21178;-60
2021/05/07 03:34:54;;;;;;;15.73;6.60;;;;;;;6.24;78.09;95168.56;1762430;81;21119;-60
2021/05/07 03:37:22;;;;;;;14.93;6.70;;;;;;;6.22;78.92;95171.66;1685115;85;21304;-60
2021/05/07 03:39:50;;;;;;;13.57;6.60;;;;;;;6.26;78.43;95165.48;1762389;81;21608;-60
2021/05/07 03:42:18;;;;;;;10.60;5.90;;;;;;;6.27;78.80;95166.35;1684950;85;21629;-60
2021/05/07 03:44:46;;;;;;;9.40;5.47;;;;;;;6.33;78.39;95160.21;1762264;81;21572;-60
2021/05/07 03:47:14;;;;;;;8.50;5.20;;;;;;;6.42;78.06;95155.73;1759950;81;21564;-60
2021/05/07 03:49:42;;;;;;;31.83;12.90;;;;;;;6.47;78.38;95151.30;1691860;85;21628;-60
2021/05/07 03:52:10;;;;;;;13.77;5.90;;;;;;;6.44;78.18;95148.73;1720367;83;21146;-60
2021/05/07 03:54:38;;;;;;;21.97;9.23;;;;;;;6.47;78.75;95150.00;1691814;85;21134;-60
2021/05/07 03:57:06;;;;;;;8.37;5.00;;;;;;;6.47;78.29;95151.30;1692174;85;21161;-60
2021/05/07 03:59:33;;;;;;;12.30;5.20;;;;;;;6.41;78.76;95153.14;1754341;82;21134;-60
2021/05/07 04:02:01;;;;;;;9.20;5.33;;;;;;;6.40;78.95;95150.08;1753997;82;21145;-60
2021/05/07 04:04:31;;;;;;;7.87;3.87;;;;;;;6.40;79.14;95152.28;1754043;82;21134;-60
2021/05/07 04:06:58;;;;;;;6.43;3.87;;;;;;;6.34;79.86;95148.84;1691830;85;21122;-60
2021/05/07 04:09:35;;;;;;;6.30;3.90;;;;;;;6.28;79.35;95138.84;1691751;85;21159;-60
2021/05/07 04:11:59;;;;;;;27.17;13.40;;;;;;;6.29;79.66;95148.88;1690140;85;21591;-60
2021/05/07 04:14:24;;;;;;;12.83;6.63;;;;;;;6.25;80.54;95136.70;1753924;82;21272;-61
2021/05/07 04:16:51;;;;;;;48.57;32.07;;;;;;;6.29;79.49;95146.25;1754550;82;21133;-62
2021/05/07 04:19:19;;;;;;;27.30;16.17;;;;;;;6.33;79.99;95149.28;1754253;82;21168;-61
2021/05/07 04:21:47;;;;;;;16.83;11.63;;;;;;;6.44;79.50;95142.17;1754102;82;21153;-62
2021/05/07 04:24:14;;;;;;;49.37;27.30;;;;;;;6.49;80.08;95148.23;1692002;85;21169;-61
2021/05/07 04:26:42;;;;;;;18.07;10.40;;;;;;;6.53;80.02;95138.61;1692129;85;21291;-61
2021/05/07 04:29:09;;;;;;;48.67;32.53;;;;;;;6.60;79.92;95144.63;1754140;82;21162;-61
2021/05/07 04:31:36;;;;;;;11.90;7.80;;;;;;;6.64;79.74;95140.66;1692169;85;21169;-61
2021/05/07 04:34:06;;;;;;;12.53;7.10;;;;;;;6.64;79.51;95139.34;1759522;81;21334;-61
2021/05/07 04:36:34;;;;;;;33.40;22.73;;;;;;;6.69;79.24;95143.23;1699431;84;21212;-61
2021/05/07 04:39:04;;;;;;;22.23;13.23;;;;;;;6.79;79.74;95146.63;1728497;83;21737;-61
2021/05/07 04:41:32;;;;;;;25.00;16.67;;;;;;;6.92;79.36;95145.59;1762170;81;21591;-60
2021/05/07 04:44:00;;;;;;;14.80;9.30;;;;;;;7.08;79.51;95140.61;1762199;81;21114;-61
2021/05/07 04:46:28;;;;;;;17.07;8.60;;;;;;;7.28;79.08;95135.53;1762273;81;21571;-61
2021/05/07 04:48:55;;;;;;;9.63;7.13;;;;;;;7.46;78.42;95130.05;1787153;80;21769;-61
2021/05/07 04:51:23;;;;;;;9.37;6.47;;;;;;;7.61;77.11;95131.59;1787867;80;21280;-61
2021/05/07 04:53:51;;;;;;;10.53;6.83;;;;;;;7.76;77.17;95124.80;1772228;80;21118;-63
2021/05/07 04:56:19;;;;;;;13.00;7.90;;;;;;;7.87;77.06;95127.70;1785002;80;21136;-67
2021/05/07 04:58:47;;;;;;;38.27;25.30;;;;;;;7.91;77.12;95128.95;1785483;80;21702;-61
2021/05/07 05:01:15;;;;;;;11.33;6.63;;;;;;;8.02;76.98;95118.27;1752889;81;21592;-61
2021/05/07 05:03:43;;;;;;;20.87;12.80;;;;;;;8.11;76.98;95123.34;1752720;82;21145;-61
2021/05/07 05:06:11;;;;;;;6.83;5.60;;;;;;;8.17;77.37;95119.31;1752745;82;21141;-62
2021/05/07 05:08:39;;;;;;;7.10;4.53;;;;;;;8.23;78.92;95117.02;1717049;83;21126;-63
2021/05/07 05:11:06;;;;;;;8.07;5.43;;;;;;;8.35;78.20;95129.95;1702162;83;21170;-60
2021/05/07 05:13:34;;;;;;;14.33;10.90;;;;;;;8.50;77.80;95117.48;1721398;83;21291;-61
2021/05/07 05:16:03;;;;;;;8.40;5.73;;;;;;;8.55;78.63;95117.81;1721297;83;21817;-62
2021/05/07 05:18:34;;;;;;;13.33;8.30;;;;;;;8.64;78.24;95118.96;1747939;82;21168;-60
2021/05/07 05:21:04;;;;;;;40.40;25.67;;;;;;;8.66;77.78;95109.25;1747750;82;21172;-61
2021/05/07 05:23:33;;;;;;;50.33;32.20;;;;;;;8.73;77.67;95110.02;1748208;82;21140;-60
2021/05/07 05:26:01;;;;;;;22.80;14.40;;;;;;;8.79;77.92;95110.34;1747904;82;21152;-61
2021/05/07 05:28:28;;;;;;;22.43;9.63;;;;;;;8.87;77.74;95103.19;1747745;82;21148;-60
2021/05/07 05:30:56;;;;;;;16.10;10.47;;;;;;;8.95;77.72;95108.30;1747816;82;21156;-61
2021/05/07 05:33:24;;;;;;;14.60;9.30;;;;;;;8.98;78.30;95095.06;1747970;82;21128;-60
2021/05/07 05:35:52;;;;;;;25.47;15.53;;;;;;;9.05;78.16;95104.58;1747740;82;21147;-61
2021/05/07 05:38:20;;;;;;;12.97;8.90;;;;;;;9.18;77.27;95094.66;1747629;82;21591;-60
2021/05/07 05:40:49;;;;;;;11.83;7.70;;;;;;;9.33;77.15;95094.78;1747738;82;21610;-62
2021/05/07 05:43:17;;;;;;;9.67;6.60;;;;;;;9.46;76.87;95093.14;1747840;82;21140;-59
2021/05/07 05:45:45;;;;;;;7.93;5.40;;;;;;;9.59;77.06;95092.41;1747713;82;21132;-60
2021/05/07 05:48:14;;;;;;;9.73;6.23;;;;;;;9.70;77.23;95097.01;1734839;82;21295;-62
2021/05/07 05:50:46;;;;;;;9.10;6.67;;;;;;;9.85;76.74;95097.10;1748373;82;21121;-61
2021/05/07 05:53:15;;;;;;;11.97;6.20;;;;;;;9.97;76.98;95098.55;1748367;82;21130;-61
2021/05/07 05:55:42;;;;;;;8.90;5.30;;;;;;;10.09;76.81;95098.26;1748684;82;21288;-64
2021/05/07 05:58:11;;;;;;;13.93;5.50;;;;;;;10.24;76.45;95108.02;1748781;82;21287;-62
2021/05/07 06:00:39;;;;;;;7.53;5.57;;;;;;;10.30;76.49;95104.79;1748669;82;21176;-62
2021/05/07 06:03:07;;;;;;;8.77;6.20;;;;;;;10.38;76.51;95104.59;1748896;82;21157;-61
2021/05/07 06:05:35;;;;;;;9.83;6.90;;;;;;;10.59;76.94;95097.91;1748625;82;21295;-62
2021/05/07 06:08:04;;;;;;;10.57;7.73;;;;;;;10.77;76.51;95092.59;1748422;82;21181;-62
2021/05/07 06:10:32;;;;;;;7.67;5.40;;;;;;;11.00;75.78;95097.23;1748628;82;21157;-61
2021/05/07 06:12:59;;;;;;;8.27;5.70;;;;;;;11.11;75.26;95095.59;1748666;82;21343;-60
2021/05/07 06:15:26;;;;;;;10.80;7.57;;;;;;;11.21;74.59;95087.38;1748544;82;21173;-61
2021/05/07 06:17:54;;;;;;;10.27;6.03;;;;;;;11.41;74.81;95085.91;1748756;82;21690;-59
2021/05/07 06:20:21;;;;;;;16.37;9.23;;;;;;;11.44;75.27;95081.84;1748372;82;21145;-61
2021/05/07 06:22:49;;;;;;;22.23;13.57;;;;;;;11.56;74.70;95087.22;1748311;82;21180;-60
2021/05/07 06:25:20;;;;;;;17.77;11.60;;;;;;;11.66;74.13;95084.24;1748478;82;21140;-60
2021/05/07 06:27:48;;;;;;;14.43;9.43;;;;;;;11.78;73.77;95090.08;1748553;82;21575;-59
2021/05/07 06:30:16;;;;;;;13.30;8.10;;;;;;;11.78;72.97;95083.47;1748518;82;21169;-60
2021/05/07 06:32:44;;;;;;;15.13;10.77;;;;;;;11.91;73.15;95074.27;1748401;82;21149;-60
2021/05/07 06:35:13;;;;;;;9.87;7.17;;;;;;;12.01;73.53;95074.83;1725256;82;21742;-60
2021/05/07 06:37:43;;;;;;;9.53;7.67;;;;;;;12.03;73.50;95070.37;1722860;83;21130;-60
2021/05/07 06:40:13;;;;;;;6.83;5.37;;;;;;;12.03;73.39;95074.33;1723203;83;21118;-60
2021/05/07 06:42:41;;;;;;;10.20;5.13;;;;;;;12.06;73.42;95074.22;1722856;83;21276;-62
2021/05/07 06:45:11;;;;;;;10.23;4.30;;;;;;;12.09;72.49;95065.72;1704962;83;21110;-59
2021/05/07 06:47:39;;;;;;;7.47;5.00;;;;;;;12.11;71.18;95073.62;1727652;81;21571;-59
2021/05/07 06:50:11;;;;;;;8.97;4.00;;;;;;;12.12;71.36;95074.05;1758844;81;21145;-60
2021/05/07 06:52:40;;;;;;;6.53;3.50;;;;;;;12.12;71.12;95070.94;1758863;81;21283;-60
2021/05/07 06:55:11;;;;;;;8.97;3.80;;;;;;;12.13;70.89;95065.18;1758689;81;21316;-60
2021/05/07 06:57:40;;;;;;;5.77;3.00;;;;;;;12.16;71.92;95065.53;1758820;81;21157;-60
2021/05/07 07:00:10;;;;;;;5.40;3.23;;;;;;;12.17;70.80;95056.24;1759060;81;21707;-60
2021/05/07 07:02:38;;;;;;;4.87;2.77;;;;;;;12.19;70.59;95062.32;1758933;81;21305;-60
2021/05/07 07:05:09;;;;;;;5.43;2.50;;;;;;;12.28;70.13;95059.84;1758644;81;21247;-61
2021/05/07 07:07:37;;;;;;;5.17;2.83;;;;;;;12.43;69.93;95053.17;1757553;82;21123;-61
2021/05/07 07:10:08;;;;;;;5.23;2.60;;;;;;;12.56;69.81;95038.12;1753825;82;21543;-61
2021/05/07 07:12:36;;;;;;;3.17;2.70;;;;;;;12.70;69.33;95042.05;1757429;82;21294;-61
2021/05/07 07:15:05;;;;;;;4.73;2.50;;;;;;;12.84;68.93;95045.07;1757640;82;21274;-62
2021/05/07 07:17:34;;;;;;;5.57;2.57;;;;;;;13.01;68.67;95047.58;1757448;82;21140;-61
2021/05/07 07:20:03;;;;;;;4.53;2.20;;;;;;;13.10;67.92;95041.92;1757429;81;21132;-62
2021/05/07 07:22:33;;;;;;;6.80;2.60;;;;;;;13.19;67.56;95045.56;1757066;82;21112;-60
2021/05/07 07:25:00;;;;;;;8.03;3.07;;;;;;;13.28;68.34;95036.42;1757152;82;21094;-60
2021/05/07 07:27:28;;;;;;;5.73;2.50;;;;;;;13.36;67.90;95035.23;1757314;81;21583;-59
2021/05/07 07:29:55;;;;;;;12.17;3.53;;;;;;;13.49;67.49;95030.31;1757220;82;21097;-60
2021/05/07 07:32:23;;;;;;;6.43;2.80;;;;;;;13.57;66.83;95040.62;1757529;82;21259;-60
2021/05/07 07:34:55;;;;;;;12.40;6.13;;;;;;;13.64;67.11;95048.73;1755123;82;21604;-61
2021/05/07 07:37:22;;;;;;;20.00;9.60;;;;;;;13.67;66.47;95055.23;1753945;82;21142;-60
2021/05/07 07:39:50;;;;;;;10.87;5.60;;;;;;;13.76;66.74;95056.20;1691874;85;21186;-60
2021/05/07 07:42:18;;;;;;;12.67;7.50;;;;;;;13.93;64.32;95060.81;1691769;85;21193;-60
2021/05/07 07:44:47;;;;;;;7.67;2.50;;;;;;;14.15;63.06;95066.12;1753880;82;21156;-61
2021/05/07 07:47:14;;;;;;;9.70;3.63;;;;;;;14.35;60.38;95063.12;1692072;85;21162;-60
2021/05/07 07:49:42;;;;;;;4.83;1.70;;;;;;;14.59;60.07;95054.59;1717642;83;21145;-60
2021/05/07 07:52:11;;;;;;;5.47;2.03;;;;;;;14.81;56.45;95061.17;1747442;82;21101;-60
2021/05/07 07:54:40;;;;;;;3.33;1.50;;;;;;;15.00;53.70;95059.92;1747853;82;21204;-61
2021/05/07 07:57:07;;;;;;;3.53;1.70;;;;;;;15.22;54.72;95056.70;1747949;82;21151;-60
2021/05/07 07:59:35;;;;;;;6.27;4.60;;;;;;;15.37;53.31;95061.75;1747887;82;21593;-61
2021/05/07 08:02:04;;;;;;;3.93;3.13;;;;;;;15.46;51.76;95061.81;1747786;82;21598;-62
2021/05/07 08:04:31;;;;;;;5.63;2.30;;;;;;;15.53;53.07;95052.16;1747631;82;21163;-60
2021/05/07 08:07:00;;;;;;;2.70;1.87;;;;;;;15.64;53.69;95057.44;1747776;82;21163;-60
2021/05/07 08:09:27;;;;;;;3.20;1.70;;;;;;;15.70;51.49;95061.15;1747569;82;21140;-60
2021/05/07 08:11:55;;;;;;;2.73;1.43;;;;;;;15.68;52.51;95067.00;1747716;82;21121;-60
2021/05/07 08:14:24;;;;;;;2.07;1.50;;;;;;;15.48;50.63;95073.25;1746938;82;21570;-61
2021/05/07 08:16:51;;;;;;;3.97;1.70;;;;;;;15.32;51.52;95069.08;1747843;82;21129;-60
2021/05/07 08:19:19;;;;;;;2.53;1.93;;;;;;;15.17;52.02;95075.97;1735715;82;21729;-60
2021/05/07 08:21:47;;;;;;;2.30;1.70;;;;;;;15.07;52.50;95073.33;1736036;83;21277;-60
2021/05/07 08:24:14;;;;;;;4.83;2.20;;;;;;;14.97;52.53;95071.55;1735097;83;21139;-60
2021/05/07 08:26:42;;;;;;;3.50;1.73;;;;;;;14.96;52.51;95064.48;1768570;80;21557;-62
2021/05/07 08:29:10;;;;;;;1.90;1.60;;;;;;;14.94;52.79;95058.38;1686999;84;21146;-60
2021/05/07 08:31:38;;;;;;;2.77;1.80;;;;;;;14.86;52.51;95058.71;1691866;84;21175;-61
2021/05/07 08:34:07;;;;;;;3.17;2.10;;;;;;;14.79;53.71;95054.63;1733284;81;21172;-61
2021/05/07 08:36:34;;;;;;;2.97;2.20;;;;;;;14.94;53.93;95054.39;1767845;81;21128;-61
2021/05/07 08:39:03;;;;;;;2.80;1.63;;;;;;;15.04;53.61;95049.53;1765099;80;21108;-60
2021/05/07 08:41:31;;;;;;;3.40;1.90;;;;;;;15.10;53.34;95038.64;1755881;81;21275;-61
2021/05/07 08:43:59;;;;;;;6.27;4.20;;;;;;;15.13;53.33;95044.67;1755764;82;21120;-61
2021/05/07 08:46:27;;;;;;;2.70;2.00;;;;;;;15.29;53.76;95045.30;1755836;82;21293;-62
2021/05/07 08:48:56;;;;;;;2.40;1.67;;;;;;;15.38;53.50;95041.38;1777051;80;21279;-64
2021/05/07 08:51:25;;;;;;;2.27;1.50;;;;;;;15.38;52.39;95042.70;1788139;80;21145;-61
2021/05/07 08:53:55;;;;;;;2.03;1.20;;;;;;;15.40;52.53;95043.50;1758609;80;21574;-60
2021/05/07 08:56:25;;;;;;;2.43;1.57;;;;;;;15.33;52.74;95040.25;1772149;80;21690;-63
2021/05/07 08:58:52;;;;;;;2.40;1.53;;;;;;;15.37;53.26;95035.17;1788103;80;21710;-63
2021/05/07 09:01:20;;;;;;;3.13;1.50;;;;;;;15.47;52.54;95034.28;1788109;80;21138;-62
2021/05/07 09:03:48;;;;;;;0.90;0.70;;;;;;;15.54;52.55;95036.58;1788562;80;21137;-62
2021/05/07 09:06:21;;;;;;;2.10;1.50;;;;;;;15.65;52.32;95052.05;1787970;80;21694;-62
2021/05/07 09:08:50;;;;;;;4.83;2.10;;;;;;;15.48;53.64;95044.86;1787853;80;21149;-62
2021/05/07 09:11:19;;;;;;;3.10;1.60;;;;;;;15.47;54.14;95045.80;1788038;80;21395;-62
2021/05/07 09:13:46;;;;;;;2.97;2.20;;;;;;;15.63;54.46;95040.63;1787878;80;21710;-62
2021/05/07 09:16:14;;;;;;;3.57;1.33;;;;;;;15.59;55.80;95030.58;1787963;80;21563;-62
2021/05/07 09:18:51;;;;;;;2.00;1.13;;;;;;;15.56;55.02;95039.18;1788198;80;21137;-62
2021/05/07 09:21:20;;;;;;;2.67;1.63;;;;;;;15.45;56.47;95038.36;1788097;80;21094;-62
2021/05/07 09:23:48;;;;;;;4.90;2.93;;;;;;;15.64;56.42;95038.81;1788095;80;21173;-63
2021/05/07 09:26:16;;;;;;;1.87;1.77;;;;;;;15.64;56.57;95034.83;1788006;80;21280;-62
2021/05/07 09:28:56;;;;;;;3.97;3.27;;;;;;;15.64;55.79;95032.17;1787996;80;21157;-62
2021/05/07 09:31:24;;;;;;;4.20;2.90;;;;;;;15.71;55.94;95030.98;1787860;80;21287;-62
2021/05/07 09:33:53;;;;;;;2.07;1.43;;;;;;;15.63;56.87;95033.12;1787855;80;21267;-62
2021/05/07 09:36:29;;;;;;;3.03;1.60;;;;;;;15.84;55.90;95032.58;1785069;80;21133;-62
2021/05/07 09:38:59;;;;;;;2.60;1.73;;;;;;;16.24;55.62;95023.50;1785181;80;21133;-62
2021/05/07 09:41:44;;;;;;;1.83;1.60;;;;;;;16.60;55.01;95023.44;1781236;80;21137;-62
2021/05/07 09:44:25;;;;;;;2.80;1.77;;;;;;;16.79;53.49;95031.38;1785332;80;21125;-62
2021/05/07 09:46:54;;;;;;;2.98;1.82;;;;;;;16.77;52.40;95031.89;1785137;80;21264;-62
2021/05/07 09:49:28;;;;;;;2.80;1.85;;;;;;;16.70;53.41;95013.65;1785262;80;21176;-63
2021/05/07 09:51:58;;;;;;;3.22;1.70;;;;;;;16.81;52.35;95016.66;1785098;80;21142;-62
2021/05/07 09:54:26;;;;;;;2.12;1.50;;;;;;;16.77;52.91;95015.05;1784955;80;21699;-62
2021/05/07 09:56:58;;;;;;;2.45;1.40;;;;;;;16.77;51.81;95017.72;1785170;80;21160;-62
2021/05/07 09:59:26;;;;;;;2.45;1.90;;;;;;;16.64;51.48;95021.49;1785195;80;21694;-62
2021/05/07 10:01:53;;;;;;;2.52;1.87;;;;;;;16.70;53.56;95022.49;1757021;80;21609;-62
2021/05/07 10:04:21;;;;;;;1.67;1.35;;;;;;;16.99;54.95;95014.83;1785281;80;21126;-62
2021/05/07 10:06:49;;;;;;;2.47;2.27;;;;;;;17.29;51.29;95022.52;1785775;80;21129;-62
2021/05/07 10:09:25;;;;;;;2.27;1.60;;;;;;;17.23;50.20;95018.83;1756546;80;21567;-62
2021/05/07 10:11:57;;;;;;;2.72;1.35;;;;;;;17.14;50.79;95023.82;1785012;80;21133;-62
2021/05/07 10:14:25;;;;;;;0.78;0.78;;;;;;;16.94;51.02;95028.39;1719228;82;21136;-62
2021/05/07 10:16:53;;;;;;;1.72;1.45;;;;;;;16.57;52.00;95028.07;1785363;80;21141;-62
2021/05/07 10:19:21;;;;;;;1.92;1.40;;;;;;;16.33;53.57;95039.03;1785157;80;21141;-62
2021/05/07 10:21:50;;;;;;;1.00;0.93;;;;;;;16.47;55.37;95042.31;1783962;80;21286;-62
2021/05/07 10:24:19;;;;;;;2.67;1.52;;;;;;;16.74;53.51;95025.88;1784937;80;21295;-62
2021/05/07 10:26:52;;;;;;;1.40;1.20;;;;;;;16.76;53.51;95022.20;1784469;80;21283;-62
2021/05/07 10:29:26;;;;;;;2.85;1.50;;;;;;;16.78;53.73;95027.02;1785087;80;21220;-62
2021/05/07 10:31:57;;;;;;;1.30;1.20;;;;;;;16.99;52.32;95014.83;1785151;80;21559;-62
2021/05/07 10:34:28;;;;;;;3.12;1.50;;;;;;;17.41;53.70;95021.45;1785208;80;21144;-62
2021/05/07 10:37:01;;;;;;;1.70;1.60;;;;;;;17.63;52.73;95030.47;1779392;80;21129;-62
2021/05/07 10:39:32;;;;;;;1.95;1.40;;;;;;;17.79;51.08;95027.36;1777458;80;21267;-62
2021/05/07 10:42:03;;;;;;;2.77;2.58;;;;;;;17.74;50.96;95024.94;1779351;81;21145;-62
2021/05/07 10:44:42;;;;;;;7.40;6.70;;;;;;;17.20;50.85;95036.81;1779371;81;21686;-62
2021/05/07 10:47:10;;;;;;;2.30;2.10;;;;;;;16.87;52.46;95035.84;1779205;80;21284;-62
2021/05/07 10:49:42;;;;;;;2.05;1.55;;;;;;;16.76;53.56;95045.31;1779338;80;21710;-62
2021/05/07 10:52:12;;;;;;;1.57;1.32;;;;;;;16.62;53.33;95040.68;1779792;81;21090;-62
2021/05/07 10:54:48;;;;;;;3.47;1.55;;;;;;;16.42;55.23;95049.67;1779428;81;21169;-62
2021/05/07 10:57:21;;;;;;;2.55;2.35;;;;;;;15.95;55.83;95051.09;1779466;81;21133;-62
2021/05/07 11:00:02;;;;;;;2.87;2.30;;;;;;;15.86;56.49;95046.20;1779073;81;21117;-62
2021/05/07 11:02:46;;;;;;;3.87;2.40;;;;;;;15.87;56.93;95049.72;1779461;81;21264;-62
2021/05/07 11:05:43;;;;;;;4.72;2.37;;;;;;;15.64;59.55;95052.97;1779376;81;21288;-62
2021/05/07 11:08:11;;;;;;;2.58;2.33;;;;;;;15.78;58.49;95053.22;1779197;80;21588;-62
2021/05/07 11:10:39;;;;;;;4.43;2.77;;;;;;;16.07;58.90;95044.29;1779142;80;21121;-62
2021/05/07 11:13:10;;;;;;;3.25;2.60;;;;;;;16.11;59.07;95047.69;1779586;80;21256;-62
2021/05/07 11:15:38;;;;;;;2.12;1.92;;;;;;;16.17;57.76;95048.22;1779096;81;21288;-62
2021/05/07 11:18:09;;;;;;;3.42;2.85;;;;;;;16.03;56.57;95049.83;1779436;81;21714;-62
2021/05/07 11:20:43;;;;;;;3.10;2.90;;;;;;;16.25;58.48;95049.17;1779265;80;21678;-63
2021/05/07 11:23:12;;;;;;;4.40;2.83;;;;;;;16.27;57.90;95041.98;1779434;81;21556;-62
2021/05/07 11:25:41;;;;;;;2.05;1.85;;;;;;;16.38;59.51;95046.80;1779343;81;21312;-62
2021/05/07 11:28:21;;;;;;;3.33;3.00;;;;;;;16.39;56.16;95041.38;1779706;81;21134;-62
2021/05/07 11:30:58;;;;;;;2.60;2.40;;;;;;;16.15;57.69;95040.81;1778970;81;21094;-62
2021/05/07 11:33:29;;;;;;;4.08;3.20;;;;;;;16.02;58.30;95044.98;1779480;81;21682;-62
2021/05/07 11:36:10;;;;;;;3.92;2.80;;;;;;;15.93;58.80;95042.31;1779006;80;21150;-62
2021/05/07 11:38:41;;;;;;;2.30;2.08;;;;;;;16.00;60.99;95045.52;1779424;81;21275;-62
2021/05/07 11:41:23;;;;;;;3.37;2.40;;;;;;;16.12;59.42;95035.61;1779444;80;21275;-62
2021/05/07 11:43:52;;;;;;;2.47;2.27;;;;;;;16.34;60.98;95037.23;1779163;81;21260;-62